createdAt,value
2023-03-21T00:02:24.286Z,9.67
2023-03-21T00:04:55.016Z,10.87
2023-03-21T00:07:24.193Z,11.73
2023-03-21T00:10:08.690Z,8.80
2023-03-21T00:12:42.851Z,9.50
2023-03-21T00:15:13.726Z,7.57
2023-03-21T00:17:41.654Z,10.90
2023-03-21T00:20:15.346Z,7.93
2023-03-21T00:22:43.181Z,8.17
2023-03-21T00:25:11.496Z,9.93
2023-03-21T00:27:56.864Z,10.33
2023-03-21T00:30:28.313Z,7.33
2023-03-21T00:32:57.060Z,7.30
2023-03-21T00:38:12.489Z,7.70
2023-03-21T00:40:48.787Z,8.10
2023-03-21T00:43:17.937Z,8.97
2023-03-21T00:45:47.325Z,9.57
2023-03-21T00:48:15.103Z,11.60
2023-03-21T00:50:45.539Z,11.67
2023-03-21T00:53:13.206Z,9.60
2023-03-21T00:55:40.976Z,9.07
2023-03-21T00:58:08.764Z,11.87
2023-03-21T01:00:37.673Z,9.93
2023-03-21T01:03:21.302Z,11.50
2023-03-21T01:06:05.913Z,12.10
2023-03-21T01:08:48.886Z,14.13
2023-03-21T01:11:21.088Z,17.53
2023-03-21T01:13:54.839Z,12.57
2023-03-21T01:16:27.380Z,15.50
2023-03-21T01:18:56.417Z,15.30
2023-03-21T01:21:24.398Z,14.80
2023-03-21T01:23:52.108Z,21.30
2023-03-21T01:26:19.779Z,18.57
2023-03-21T01:28:47.666Z,17.83
2023-03-21T01:31:16.694Z,18.17
2023-03-21T01:33:44.608Z,16.97
2023-03-21T01:36:16.543Z,19.60
2023-03-21T01:38:44.477Z,17.33
2023-03-21T01:41:19.904Z,22.93
2023-03-21T01:43:48.091Z,21.80
2023-03-21T01:46:22.571Z,20.07
2023-03-21T01:48:52.707Z,21.23
2023-03-21T01:51:23.152Z,20.93
2023-03-21T01:53:50.949Z,19.30
2023-03-21T01:56:20.947Z,19.00
2023-03-21T01:58:49.054Z,18.47
2023-03-21T02:01:17.081Z,19.87
2023-03-21T02:03:51.443Z,20.37
2023-03-21T02:06:25.099Z,20.23
2023-03-21T02:08:53.493Z,18.43
2023-03-21T02:11:22.358Z,15.93
2023-03-21T02:13:53.620Z,17.00
2023-03-21T02:16:28.669Z,15.90
2023-03-21T02:19:00.635Z,15.73
2023-03-21T02:21:46.331Z,16.30
2023-03-21T02:24:35.306Z,17.47
2023-03-21T02:27:10.054Z,16.20
2023-03-21T02:30:05.087Z,20.27
2023-03-21T02:32:40.931Z,17.67
2023-03-21T02:35:17.216Z,19.37
2023-03-21T02:37:55.179Z,20.17
2023-03-21T02:40:31.548Z,21.90
2023-03-21T02:43:04.315Z,19.67
2023-03-21T02:45:36.315Z,20.97
2023-03-21T02:48:07.007Z,22.63
2023-03-21T02:50:37.520Z,20.13
2023-03-21T02:53:08.659Z,19.40
2023-03-21T02:55:37.175Z,24.07
2023-03-21T02:58:12.877Z,20.70
2023-03-21T03:00:43.066Z,21.13
2023-03-21T03:03:17.945Z,18.73
2023-03-21T03:05:50.404Z,20.17
2023-03-21T03:08:38.515Z,18.03
2023-03-21T03:11:16.243Z,19.20
2023-03-21T03:13:51.889Z,16.47
2023-03-21T03:16:26.797Z,18.40
2023-03-21T03:18:55.570Z,18.00
2023-03-21T03:21:27.645Z,17.47
2023-03-21T03:23:58.596Z,16.40
2023-03-21T03:26:27.843Z,20.40
2023-03-21T03:28:57.137Z,17.03
2023-03-21T03:31:27.159Z,15.93
2023-03-21T03:33:56.816Z,18.40
2023-03-21T03:36:31.968Z,14.50
2023-03-21T03:39:04.592Z,18.30
2023-03-21T03:41:56.259Z,15.40
2023-03-21T03:44:20.782Z,16.00
2023-03-21T03:46:52.798Z,17.13
2023-03-21T03:49:22.480Z,18.93
2023-03-21T03:51:53.713Z,17.63
2023-03-21T03:54:24.362Z,18.63
2023-03-21T03:56:52.154Z,16.93
2023-03-21T03:59:22.160Z,17.77
2023-03-21T04:01:49.890Z,21.23
2023-03-21T04:04:18.112Z,19.93
2023-03-21T04:06:51.804Z,20.33
2023-03-21T04:09:25.083Z,17.80
2023-03-21T04:12:00.616Z,17.93
2023-03-21T04:14:33.183Z,23.30
2023-03-21T04:17:11.381Z,22.70
2023-03-21T04:19:39.198Z,20.20
2023-03-21T04:22:07.374Z,16.60
2023-03-21T04:24:37.653Z,15.63
2023-03-21T04:27:07.154Z,15.40
2023-03-21T04:29:34.864Z,16.57
2023-03-21T04:32:02.665Z,16.23
2023-03-21T04:34:30.373Z,19.17
2023-03-21T04:36:58.033Z,23.57
2023-03-21T04:39:25.685Z,22.23
2023-03-21T04:41:53.370Z,25.13
2023-03-21T04:44:22.780Z,24.63
2023-03-21T04:46:51.846Z,28.00
2023-03-21T04:49:19.683Z,25.27
2023-03-21T04:51:47.297Z,23.03
2023-03-21T04:56:42.920Z,20.47
2023-03-21T04:59:11.898Z,29.63
2023-03-21T05:01:43.934Z,23.77
2023-03-21T05:04:12.860Z,23.47
2023-03-21T05:06:42.375Z,22.43
2023-03-21T05:09:10.287Z,13.27
2023-03-21T05:11:38.906Z,23.77
2023-03-21T05:14:06.944Z,19.43
2023-03-21T05:16:34.976Z,22.37
2023-03-21T05:19:05.022Z,18.43
2023-03-21T05:21:34.224Z,23.70
2023-03-21T05:24:03.725Z,18.60
2023-03-21T05:26:31.463Z,14.67
2023-03-21T05:28:59.071Z,18.07
2023-03-21T05:31:26.799Z,14.67
2023-03-21T05:33:54.454Z,10.37
2023-03-21T05:36:23.480Z,15.40
2023-03-21T05:38:51.522Z,13.93
2023-03-21T05:41:21.379Z,13.43
2023-03-21T05:43:49.062Z,14.03
2023-03-21T05:46:16.794Z,11.47
2023-03-21T05:48:44.456Z,11.73
2023-03-21T05:51:12.196Z,8.63
2023-03-21T05:53:41.353Z,10.70
2023-03-21T05:56:09.598Z,9.23
2023-03-21T05:58:37.223Z,9.83
2023-03-21T06:01:05.093Z,9.20
2023-03-21T06:03:32.926Z,9.67
2023-03-21T06:06:00.839Z,10.63
2023-03-21T06:08:28.601Z,10.57
2023-03-21T06:10:58.055Z,9.30
2023-03-21T06:13:25.751Z,10.57
2023-03-21T06:15:53.579Z,11.33
2023-03-21T06:18:21.244Z,9.87
2023-03-21T06:20:48.835Z,12.90
2023-03-21T06:23:17.588Z,11.23
2023-03-21T06:25:45.400Z,11.67
2023-03-21T06:28:14.424Z,9.77
2023-03-21T06:30:42.228Z,10.27
2023-03-21T06:33:09.883Z,13.67
2023-03-21T06:35:37.754Z,16.87
2023-03-21T06:38:06.164Z,16.50
2023-03-21T06:40:33.862Z,14.10
2023-03-21T06:43:02.574Z,19.53
2023-03-21T06:45:31.580Z,14.90
2023-03-21T06:47:59.313Z,22.40
2023-03-21T06:50:27.096Z,17.27
2023-03-21T06:52:54.740Z,21.57
2023-03-21T06:55:26.235Z,18.27
2023-03-21T06:57:53.956Z,23.10
2023-03-21T07:00:22.389Z,25.47
2023-03-21T07:02:51.938Z,18.83
2023-03-21T07:05:19.654Z,23.23
2023-03-21T07:07:47.292Z,23.97
2023-03-21T07:10:15.593Z,28.20
2023-03-21T07:12:43.303Z,23.03
2023-03-21T07:15:11.794Z,25.67
2023-03-21T07:17:39.891Z,23.50
2023-03-21T07:20:09.735Z,27.10
2023-03-21T07:22:37.409Z,21.80
2023-03-21T07:25:05.770Z,29.30
2023-03-21T07:27:33.621Z,26.50
2023-03-21T07:30:01.242Z,23.97
2023-03-21T07:32:30.096Z,26.80
2023-03-21T07:34:58.608Z,23.07
2023-03-21T07:37:28.643Z,26.43
2023-03-21T07:39:56.275Z,29.77
2023-03-21T07:42:24.035Z,26.73
2023-03-21T07:44:52.816Z,26.43
2023-03-21T07:47:20.706Z,25.17
2023-03-21T07:49:48.488Z,27.40
2023-03-21T07:52:16.251Z,34.43
2023-03-21T07:54:45.300Z,26.93
2023-03-21T07:57:13.787Z,23.10
2023-03-21T07:59:43.661Z,22.40
2023-03-21T08:02:12.270Z,24.77
2023-03-21T08:04:40.243Z,21.73
2023-03-21T08:07:07.956Z,24.23
2023-03-21T08:09:36.266Z,24.90
2023-03-21T08:12:06.301Z,26.80
2023-03-21T08:14:33.920Z,24.47
2023-03-21T08:17:01.610Z,26.93
2023-03-21T08:19:29.417Z,25.33
2023-03-21T08:21:59.784Z,26.87
2023-03-21T08:24:27.458Z,26.57
2023-03-21T08:26:55.856Z,29.63
2023-03-21T08:29:25.822Z,22.90
2023-03-21T08:31:53.772Z,30.03
2023-03-21T08:34:23.186Z,24.57
2023-03-21T08:36:50.820Z,27.77
2023-03-21T08:39:18.506Z,23.93
2023-03-21T08:41:46.571Z,30.83
2023-03-21T08:44:16.503Z,29.33
2023-03-21T08:46:45.721Z,26.83
2023-03-21T08:49:13.733Z,21.83
2023-03-21T08:51:41.425Z,24.13
2023-03-21T08:54:09.150Z,24.67
2023-03-21T08:56:37.541Z,23.13
2023-03-21T08:59:05.238Z,32.37
2023-03-21T09:01:33.572Z,18.27
2023-03-21T09:04:02.735Z,24.37
2023-03-21T09:06:31.090Z,26.97
2023-03-21T09:08:59.232Z,21.27
2023-03-21T09:11:26.919Z,21.50
2023-03-21T09:13:54.579Z,21.07
2023-03-21T09:16:22.435Z,19.53
2023-03-21T09:18:55.619Z,20.50
2023-03-21T09:21:25.038Z,17.73
2023-03-21T09:23:55.456Z,20.20
2023-03-21T09:26:23.569Z,18.80
2023-03-21T09:28:51.381Z,16.30
2023-03-21T09:31:22.799Z,20.83
2023-03-21T09:33:51.383Z,21.00
2023-03-21T09:36:21.230Z,19.33
2023-03-21T09:38:50.909Z,27.37
2023-03-21T09:41:25.205Z,20.23
2023-03-21T09:44:00.350Z,19.43
2023-03-21T09:46:32.693Z,21.37
2023-03-21T09:49:02.849Z,21.47
2023-03-21T09:51:34.584Z,18.77
2023-03-21T09:54:07.604Z,23.63
2023-03-21T09:56:36.636Z,17.13
2023-03-21T09:59:07.788Z,27.20
2023-03-21T10:01:42.045Z,22.47
2023-03-21T10:04:13.044Z,18.67
2023-03-21T10:06:42.907Z,25.03
2023-03-21T10:09:15.995Z,17.93
2023-03-21T10:11:46.240Z,22.23
2023-03-21T10:14:17.646Z,20.57
2023-03-21T10:16:47.109Z,24.43
2023-03-21T10:19:15.666Z,23.47
2023-03-21T10:22:03.631Z,19.33
2023-03-21T10:24:34.231Z,17.13
2023-03-21T10:27:02.641Z,17.13
2023-03-21T10:29:31.982Z,18.13
2023-03-21T10:31:59.909Z,20.13
2023-03-21T10:34:32.304Z,16.30
2023-03-21T10:37:00.379Z,14.67
2023-03-21T10:39:28.936Z,22.00
2023-03-21T10:41:57.969Z,21.37
2023-03-21T10:44:30.098Z,20.63
2023-03-21T10:46:58.613Z,17.80
2023-03-21T10:49:26.795Z,15.30
2023-03-21T10:51:56.238Z,17.57
2023-03-21T10:54:25.486Z,17.53
2023-03-21T10:56:58.419Z,14.63
2023-03-21T10:59:29.069Z,14.70
2023-03-21T11:01:58.090Z,13.70
2023-03-21T11:04:27.554Z,11.33
2023-03-21T11:06:56.952Z,9.50
2023-03-21T11:09:25.630Z,9.37
2023-03-21T11:11:54.884Z,12.03
2023-03-21T11:14:27.984Z,6.10
2023-03-21T11:16:55.862Z,8.10
2023-03-21T11:19:27.871Z,6.77
2023-03-21T11:21:57.655Z,13.73
2023-03-21T11:24:25.434Z,10.97
2023-03-21T11:26:53.109Z,8.63
2023-03-21T11:29:28.380Z,11.00
2023-03-21T11:32:02.137Z,10.13
2023-03-21T11:34:32.874Z,7.20
2023-03-21T11:37:01.387Z,8.87
2023-03-21T11:39:33.363Z,11.50
2023-03-21T11:42:01.171Z,9.43
2023-03-21T11:44:32.933Z,10.83
2023-03-21T11:47:01.987Z,8.10
2023-03-21T11:49:29.736Z,6.47
2023-03-21T11:52:05.035Z,8.00
2023-03-21T11:54:35.378Z,6.73
2023-03-21T11:57:08.891Z,8.50
2023-03-21T11:59:42.424Z,8.37
2023-03-21T12:02:28.002Z,11.10
2023-03-21T12:04:58.093Z,6.53
2023-03-21T12:07:43.479Z,10.53
2023-03-21T12:10:27.440Z,7.27
2023-03-21T12:12:58.543Z,6.57
2023-03-21T12:15:29.460Z,7.67
2023-03-21T12:18:06.070Z,5.87
2023-03-21T12:20:38.392Z,6.70
2023-03-21T12:23:23.783Z,6.20
2023-03-21T12:25:56.583Z,5.70
2023-03-21T12:28:33.036Z,9.20
2023-03-21T12:31:05.857Z,6.23
2023-03-21T12:33:42.071Z,6.17
2023-03-21T12:36:17.799Z,5.07
2023-03-21T12:38:51.351Z,5.93
2023-03-21T12:41:23.470Z,5.83
2023-03-21T12:43:55.446Z,5.43
2023-03-21T12:46:25.582Z,6.67
2023-03-21T12:48:57.474Z,7.07
2023-03-21T12:51:26.671Z,6.50
2023-03-21T12:53:59.126Z,5.40
2023-03-21T12:56:30.083Z,8.17
2023-03-21T12:59:00.870Z,7.57
2023-03-21T13:01:29.968Z,5.27
2023-03-21T13:04:09.509Z,5.87
2023-03-21T13:06:38.985Z,8.00
2023-03-21T13:09:09.614Z,4.70
2023-03-21T13:11:38.180Z,8.80
2023-03-21T13:14:07.418Z,7.40
2023-03-21T13:16:37.213Z,5.43
2023-03-21T13:19:12.893Z,4.23
2023-03-21T13:21:44.321Z,6.70
2023-03-21T13:24:26.120Z,5.57
2023-03-21T13:26:57.999Z,4.97
2023-03-21T13:29:27.562Z,6.37
2023-03-21T13:31:57.342Z,5.97
2023-03-21T13:34:26.986Z,4.50
2023-03-21T13:36:57.971Z,5.13
2023-03-21T13:39:27.690Z,6.23
2023-03-21T13:41:56.056Z,6.00
2023-03-21T13:44:33.517Z,4.40
2023-03-21T13:47:02.441Z,5.47
2023-03-21T13:49:36.111Z,5.47
2023-03-21T13:52:22.100Z,5.27
2023-03-21T13:54:52.469Z,8.33
2023-03-21T13:57:38.367Z,5.07
2023-03-21T14:00:17.703Z,4.77
2023-03-21T14:02:54.053Z,5.47
2023-03-21T14:05:24.239Z,4.97
2023-03-21T14:07:59.338Z,5.10
2023-03-21T14:10:34.613Z,5.47
2023-03-21T14:13:04.300Z,6.47
2023-03-21T14:15:41.004Z,6.33
2023-03-21T14:18:27.718Z,5.77
2023-03-21T14:21:05.289Z,5.47
2023-03-21T14:23:39.538Z,4.73
2023-03-21T14:26:09.706Z,7.73
2023-03-21T14:28:38.001Z,5.77
2023-03-21T14:31:05.876Z,6.17
2023-03-21T14:33:36.435Z,9.77
2023-03-21T14:36:08.982Z,4.67
2023-03-21T14:38:37.786Z,5.40
2023-03-21T14:41:05.613Z,5.63
2023-03-21T14:43:34.389Z,5.27
2023-03-21T14:46:02.268Z,6.63
2023-03-21T14:48:30.869Z,5.73
2023-03-21T14:50:59.088Z,5.50
2023-03-21T14:53:28.831Z,6.93
2023-03-21T14:55:58.701Z,4.60
2023-03-21T14:58:27.907Z,5.17
2023-03-21T15:00:57.452Z,4.87
2023-03-21T15:03:27.416Z,9.03
2023-03-21T15:05:55.441Z,5.07
2023-03-21T15:08:24.282Z,4.80
2023-03-21T15:11:06.191Z,7.67
2023-03-21T15:13:35.764Z,5.07
2023-03-21T15:16:04.069Z,6.57
2023-03-21T15:18:33.244Z,7.83
2023-03-21T15:21:03.859Z,10.30
2023-03-21T15:23:33.143Z,7.60
2023-03-21T15:26:04.368Z,5.60
2023-03-21T15:28:32.417Z,11.00
2023-03-21T15:31:00.281Z,9.23
2023-03-21T15:33:28.111Z,7.20
2023-03-21T15:35:56.456Z,8.47
2023-03-21T15:38:25.880Z,8.03
2023-03-21T15:41:14.002Z,8.40
2023-03-21T15:43:43.285Z,8.53
2023-03-21T15:46:14.588Z,6.47
2023-03-21T15:48:42.288Z,9.40
2023-03-21T15:51:12.832Z,7.23
2023-03-21T15:53:43.937Z,8.07
2023-03-21T15:56:16.557Z,10.00
2023-03-21T15:58:46.350Z,9.90
2023-03-21T16:01:16.936Z,6.57
2023-03-21T16:03:46.680Z,7.27
2023-03-21T16:06:22.058Z,6.30
2023-03-21T16:08:51.264Z,5.50
2023-03-21T16:11:20.167Z,6.00
2023-03-21T16:13:49.276Z,5.27
2023-03-21T16:16:18.836Z,5.63
2023-03-21T16:18:46.662Z,5.50
2023-03-21T16:21:14.801Z,6.93
2023-03-21T16:23:42.975Z,6.73
2023-03-21T16:26:12.484Z,6.07
2023-03-21T16:28:40.138Z,6.80
2023-03-21T16:31:11.056Z,9.00
2023-03-21T16:33:38.904Z,9.50
2023-03-21T16:36:07.637Z,8.13
2023-03-21T16:38:35.480Z,9.57
2023-03-21T16:41:04.446Z,11.47
2023-03-21T16:43:32.490Z,8.23
2023-03-21T16:46:00.290Z,8.73
2023-03-21T16:48:29.375Z,9.67
2023-03-21T16:50:57.087Z,11.23
2023-03-21T16:53:24.811Z,8.90
2023-03-21T16:55:52.767Z,13.13
2023-03-21T16:58:20.658Z,9.57
2023-03-21T17:00:48.588Z,9.40
2023-03-21T17:03:19.148Z,9.33
2023-03-21T17:05:48.627Z,11.63
2023-03-21T17:08:16.817Z,10.03
2023-03-21T17:10:46.634Z,11.80
2023-03-21T17:13:14.321Z,8.53
2023-03-21T17:15:42.233Z,10.57
2023-03-21T17:18:16.480Z,10.10
2023-03-21T17:20:44.177Z,11.77
2023-03-21T17:23:13.237Z,12.27
2023-03-21T17:25:40.917Z,15.23
2023-03-21T17:28:08.906Z,13.57
2023-03-21T17:30:39.278Z,15.13
2023-03-21T17:33:07.444Z,11.30
2023-03-21T17:35:35.149Z,10.40
2023-03-21T17:38:02.894Z,11.30
2023-03-21T17:40:33.091Z,12.80
2023-03-21T17:43:01.405Z,12.57
2023-03-21T17:45:29.755Z,9.93
2023-03-21T17:47:57.458Z,10.70
2023-03-21T17:50:26.106Z,10.17
2023-03-21T17:52:56.515Z,13.10
2023-03-21T17:55:24.372Z,11.33
2023-03-21T17:57:53.528Z,11.37
2023-03-21T18:00:22.981Z,10.67
2023-03-21T18:02:50.844Z,11.70
2023-03-21T18:05:18.986Z,15.27
2023-03-21T18:08:08.870Z,13.67
2023-03-21T18:10:34.861Z,12.67
2023-03-21T18:13:03.914Z,13.97
2023-03-21T18:15:31.732Z,14.33
2023-03-21T18:17:59.565Z,15.37
2023-03-21T18:20:49.758Z,14.83
2023-03-21T18:23:16.160Z,14.60
2023-03-21T18:25:43.847Z,14.37
2023-03-21T18:28:13.229Z,12.57
2023-03-21T18:31:09.686Z,14.67
2023-03-21T18:33:30.090Z,12.13
2023-03-21T18:35:59.868Z,12.53
2023-03-21T18:38:28.233Z,12.53
2023-03-21T18:40:55.989Z,12.40
2023-03-21T18:46:13.007Z,12.97
2023-03-21T18:48:40.968Z,12.57
2023-03-21T18:51:09.736Z,11.60
2023-03-21T18:53:37.980Z,12.13
2023-03-21T18:56:09.761Z,12.53
2023-03-21T18:58:39.611Z,11.67
2023-03-21T19:01:08.122Z,12.00
2023-03-21T19:03:37.602Z,11.93
2023-03-21T19:06:06.529Z,13.03
2023-03-21T19:08:38.753Z,12.20
2023-03-21T19:11:07.172Z,12.37
2023-03-21T19:13:35.256Z,14.20
2023-03-21T19:16:04.542Z,14.00
2023-03-21T19:18:53.959Z,14.03
2023-03-21T19:21:21.708Z,15.47
2023-03-21T19:24:22.951Z,18.40
2023-03-21T19:26:37.062Z,14.07
2023-03-21T19:29:04.744Z,15.93
2023-03-21T19:31:33.934Z,16.27
2023-03-21T19:34:01.840Z,15.43
2023-03-21T19:36:29.540Z,14.07
2023-03-21T19:38:57.202Z,14.77
2023-03-21T19:41:25.440Z,14.53
2023-03-21T19:43:55.065Z,14.23
2023-03-21T19:46:25.422Z,16.00
2023-03-21T19:48:56.448Z,15.00
2023-03-21T19:51:29.401Z,13.47
2023-03-21T19:53:58.167Z,15.93
2023-03-21T19:56:27.307Z,18.10
2023-03-21T19:58:55.518Z,17.47
2023-03-21T20:01:24.085Z,15.23
2023-03-21T20:03:52.475Z,17.43
2023-03-21T20:06:22.537Z,15.23
2023-03-21T20:09:30.824Z,14.77
2023-03-21T20:11:39.172Z,15.33
2023-03-21T20:14:07.499Z,15.30
2023-03-21T20:16:36.920Z,15.27
2023-03-21T20:19:04.888Z,16.10
2023-03-21T20:21:45.313Z,14.43
2023-03-21T20:24:16.631Z,15.83
2023-03-21T20:26:45.004Z,16.43
2023-03-21T20:30:07.183Z,15.07
2023-03-21T20:32:00.867Z,14.20
2023-03-21T20:34:30.466Z,15.97
2023-03-21T20:36:59.873Z,15.87
2023-03-21T20:39:29.790Z,15.20
2023-03-21T20:41:59.397Z,18.83
2023-03-21T20:44:51.955Z,15.03
2023-03-21T20:47:15.688Z,15.97
2023-03-21T20:49:43.488Z,15.70
2023-03-21T20:52:52.101Z,14.87
2023-03-21T20:55:00.638Z,16.93
2023-03-21T20:57:28.459Z,17.37
2023-03-21T20:59:56.176Z,16.00
2023-03-21T21:02:24.363Z,18.57
2023-03-21T21:05:21.920Z,16.13
2023-03-21T21:07:43.045Z,15.20
2023-03-21T21:10:11.578Z,16.93
2023-03-21T21:12:39.619Z,19.27
2023-03-21T21:15:08.422Z,17.87
2023-03-21T21:20:24.184Z,19.53
2023-03-21T21:22:59.597Z,17.00
2023-03-21T21:25:29.116Z,18.67
2023-03-21T21:27:57.042Z,21.83
2023-03-21T21:30:25.000Z,19.30
2023-03-21T21:32:52.652Z,22.90
2023-03-21T21:35:22.323Z,21.10
2023-03-21T21:37:51.178Z,24.20
2023-03-21T21:40:23.462Z,23.33
2023-03-21T21:42:51.385Z,20.00
2023-03-21T21:45:19.403Z,21.67
2023-03-21T21:47:47.269Z,23.00
2023-03-21T21:50:14.949Z,22.97
2023-03-21T21:52:52.822Z,17.43
2023-03-21T21:55:21.987Z,10.33
2023-03-21T21:57:51.119Z,7.83
2023-03-21T22:00:20.048Z,7.20
2023-03-21T22:02:48.176Z,4.00
2023-03-21T22:05:16.376Z,3.30
2023-03-21T22:07:44.313Z,3.80
2023-03-21T22:10:12.670Z,3.70
2023-03-21T22:12:41.657Z,3.73
2023-03-21T22:15:10.928Z,4.93
2023-03-21T22:17:38.938Z,5.67
2023-03-21T22:20:08.945Z,8.00
2023-03-21T22:22:37.333Z,8.40
2023-03-21T22:25:05.247Z,6.13
2023-03-21T22:27:32.973Z,6.83
2023-03-21T22:30:04.777Z,6.80
2023-03-21T22:32:32.492Z,5.90
2023-03-21T22:35:02.406Z,5.30
2023-03-21T22:37:30.243Z,6.80
2023-03-21T22:39:57.885Z,5.57
2023-03-21T22:42:25.563Z,5.30
2023-03-21T22:44:53.446Z,6.40
2023-03-21T22:47:22.483Z,5.53
2023-03-21T22:49:50.164Z,7.20
2023-03-21T22:52:17.951Z,7.10
2023-03-21T22:54:46.001Z,5.87
2023-03-21T22:57:14.113Z,6.10
2023-03-21T22:59:41.855Z,5.60
2023-03-21T23:02:10.159Z,5.17
2023-03-21T23:04:39.278Z,5.43
2023-03-21T23:07:07.141Z,5.53
2023-03-21T23:09:35.619Z,6.37
2023-03-21T23:12:03.256Z,5.70
2023-03-21T23:14:31.064Z,6.63
2023-03-21T23:17:00.267Z,7.00
2023-03-21T23:19:28.873Z,6.10
2023-03-21T23:21:58.135Z,6.00
2023-03-21T23:24:25.824Z,5.73
2023-03-21T23:26:53.822Z,6.13
2023-03-21T23:29:21.605Z,6.37
2023-03-21T23:31:49.230Z,5.97
2023-03-21T23:34:16.868Z,7.27
2023-03-21T23:36:44.615Z,5.70
2023-03-21T23:39:13.626Z,7.03
2023-03-21T23:41:42.811Z,7.27
2023-03-21T23:44:10.823Z,5.93
2023-03-21T23:46:38.532Z,6.30
2023-03-21T23:49:06.238Z,6.70
2023-03-21T23:51:39.952Z,6.83
2023-03-21T23:54:07.861Z,6.13
2023-03-21T23:56:37.196Z,6.73
2023-03-21T23:59:05.223Z,6.77
